Superstar Express — 3FFX9 — position and weather

sailwx.info

Track history (hours):
 
Tides and Currents Weather Stations Pressure Air Temp Water Temp Dewpoint Dewpoint Depression Visibility Wind Speed Wind Dir Waves Ship Positions

Superstar Express

Operator: P & O Irish Sea

Last reported at 2019-Feb-15 07:32 UTC. Time now 2019-Feb-16 03:27 UTC.
Position N 31°55' W 080°39'.

Length 183 m; draft 7.2 m.

Type: Ship. MMSI: 351360000.

Date/timePositionNaut miles runAvg speedWind from/ knotsBaromVisibWave heightAir tempDewpointWater temp
2019-Feb-15 07:32N 31°55' W 080°39'0 8.5
2019-Feb-15 07:30N 31°55' W 080°39'5 9.3
2019-Feb-15 06:59N 31°58' W 080°44'510.3
2019-Feb-15 06:29N 32°01' W 080°48'5 9.8
2019-Feb-15 06:00N 32°02' W 080°54'5 9.6
2019-Feb-15 05:30N 32°05' W 080°59'4 7.7
2019-Feb-15 05:00N 32°05' W 081°03'3 4.8
2019-Feb-15 04:28N 32°05' W 081°06'0 0.0
2019-Feb-15 03:58N 32°05' W 081°06'0 0.0
2019-Feb-15 03:28N 32°05' W 081°06'0 0.0
2019-Feb-15 02:58N 32°05' W 081°06'0 0.0
2019-Feb-15 02:28N 32°05' W 081°06'0 0.0
2019-Feb-15 01:58N 32°05' W 081°06'0 0.0
2019-Feb-15 01:28N 32°05' W 081°06'0 0.0
2019-Feb-15 00:58N 32°05' W 081°06'0 0.0
2019-Feb-15 00:28N 32°05' W 081°06'0 0.0
2019-Feb-14 23:58N 32°05' W 081°06'0 0.0
2019-Feb-14 23:25N 32°05' W 081°06'0 0.0
2019-Feb-14 22:52N 32°05' W 081°06'0 0.0
2019-Feb-14 22:28N 32°05' W 081°06'0 0.0
2019-Feb-14 21:58N 32°05' W 081°06'0 0.0
2019-Feb-14 20:31N 32°05' W 081°06'0 0.1
2019-Feb-14 20:28N 32°05' W 081°06'0 0.0
2019-Feb-14 19:55N 32°05' W 081°06'0 0.0
2019-Feb-14 19:28N 32°05' W 081°06'0 0.0
2019-Feb-14 18:58N 32°05' W 081°06'0 0.0
2019-Feb-14 18:28N 32°05' W 081°06'0 0.0
2019-Feb-14 17:58N 32°05' W 081°06'0 0.0
2019-Feb-14 17:25N 32°05' W 081°06'0 0.0
2019-Feb-14 16:58N 32°05' W 081°06'0 0.0
2019-Feb-14 16:28N 32°05' W 081°06'0 0.0
2019-Feb-14 15:58N 32°05' W 081°06'0 0.0
2019-Feb-14 15:28N 32°05' W 081°06'0 0.0
2019-Feb-14 14:58N 32°05' W 081°06'0 0.0
2019-Feb-14 14:28N 32°05' W 081°06'0 0.0
2019-Feb-14 13:58N 32°05' W 081°06'0 0.0
2019-Feb-14 13:28N 32°05' W 081°06'0 0.0
2019-Feb-14 12:58N 32°05' W 081°06'0 0.0
2019-Feb-14 12:04N 32°05' W 081°06'0 0.1
2019-Feb-14 11:58N 32°05' W 081°06'0 0.0
2019-Feb-14 11:10N 32°05' W 081°06'0 0.0
2019-Feb-14 10:43N 32°05' W 081°06'0 0.0
2019-Feb-14 10:28N 32°05' W 081°06'0 0.0
2019-Feb-14 09:58N 32°05' W 081°06'0 0.0
2019-Feb-14 09:28N 32°05' W 081°06'0 0.0
2019-Feb-14 08:58N 32°05' W 081°06'0 0.0
2019-Feb-14 08:28N 32°05' W 081°06'0 0.0
2019-Feb-14 07:58N 32°05' W 081°06'0 0.0
2019-Feb-14 07:28N 32°05' W 081°06'0 0.0
2019-Feb-14 06:58N 32°05' W 081°06'0 0.0
2019-Feb-14 06:28N 32°05' W 081°06'0 0.0
2019-Feb-14 05:58N 32°05' W 081°06'0 0.0
2019-Feb-14 05:28N 32°05' W 081°06'0 0.0
2019-Feb-14 04:58N 32°05' W 081°06'0 0.0
2019-Feb-14 04:28N 32°05' W 081°06'0 0.0
2019-Feb-14 03:58N 32°05' W 081°06'0 0.0
2019-Feb-14 02:58N 32°05' W 081°06'0 0.1
2019-Feb-14 02:30N 32°06' W 081°06'2 3.4
2019-Feb-14 02:00N 32°07' W 081°07'3 5.7
2019-Feb-14 01:30N 32°05' W 081°05'4 8.0
2019-Feb-14 01:00N 32°06' W 081°01'5 9.2
2019-Feb-14 00:30N 32°03' W 080°56'4 8.9
2019-Feb-14 00:00N 32°02' W 080°51'5 9.9
2019-Feb-13 23:30N 31°59' W 080°46'611.1
2019-Feb-13 23:00N 31°57' W 080°41'4 8.5
2019-Feb-13 22:30N 31°57' W 080°35'5 9.4
2019-Feb-13 22:00N 31°58' W 080°30'5 9.3
2019-Feb-13 21:30N 32°00' W 080°25'5 9.1
2019-Feb-13 21:00N 32°03' W 080°21'  
2019-Feb-11 12:08N 38°46' W 075°02'3 9.7
2019-Feb-11 11:52N 38°48' W 075°04'811.3
2019-Feb-11 11:10N 38°56' W 075°06'214.6
2019-Feb-11 11:01N 38°58' W 075°07'713.8
2019-Feb-11 10:30N 39°05' W 075°11'713.7
2019-Feb-11 10:00N 39°10' W 075°16'713.2
2019-Feb-11 09:30N 39°16' W 075°20'612.9
2019-Feb-11 09:00N 39°21' W 075°26'612.2
2019-Feb-11 08:30N 39°25' W 075°31'510.3
2019-Feb-11 08:00N 39°30' W 075°33'510.1
2019-Feb-11 07:30N 39°35' W 075°34'4 8.7
2019-Feb-11 07:00N 39°39' W 075°33'4 8.8
2019-Feb-11 06:30N 39°43' W 075°30'5 9.1
2019-Feb-11 06:00N 39°47' W 075°27'4 8.6
2019-Feb-11 05:30N 39°50' W 075°22'12 2.4
2019-Feb-11 00:38N 39°54' W 075°08'0 0.0
2019-Feb-11 00:15N 39°54' W 075°08'0 0.0
2019-Feb-10 23:55N 39°54' W 075°08'0 0.0
2019-Feb-10 23:20N 39°54' W 075°08'0 0.0
2019-Feb-10 22:12N 39°54' W 075°08'0 0.0
2019-Feb-10 21:55N 39°54' W 075°08'0 0.0
2019-Feb-10 21:20N 39°54' W 075°08'0 0.0
2019-Feb-10 20:55N 39°54' W 075°08'0 0.0
2019-Feb-10 20:15N 39°54' W 075°08'0 0.0
2019-Feb-10 19:15N 39°54' W 075°08'0 0.0
2019-Feb-10 18:44N 39°54' W 075°08'0 0.0
2019-Feb-10 18:24N 39°54' W 075°08'0 0.0
2019-Feb-10 17:45N 39°54' W 075°08'0 0.0
2019-Feb-10 16:20N 39°54' W 075°08'0 0.0
2019-Feb-10 15:25N 39°54' W 075°08'0 0.0
2019-Feb-10 14:54N 39°54' W 075°08'0 0.0
2019-Feb-10 14:15N 39°54' W 075°08'0 0.0
2019-Feb-10 13:03N 39°54' W 075°08'0 0.0
2019-Feb-10 12:25N 39°54' W 075°08'0 0.0
2019-Feb-10 11:37N 39°54' W 075°08'0 0.0
2019-Feb-10 11:25N 39°54' W 075°08'0 0.0
2019-Feb-10 10:32N 39°54' W 075°08'0 0.0
2019-Feb-10 10:11N 39°54' W 075°08'0 0.0
2019-Feb-10 10:00N 39°54' W 075°08'0 0.0
2019-Feb-10 07:49N 39°54' W 075°08'0 0.0
2019-Feb-10 07:30N 39°54' W 075°08'0 0.0
2019-Feb-10 06:45N 39°54' W 075°08'0 0.0
2019-Feb-10 06:15N 39°54' W 075°08'0 0.0
2019-Feb-10 06:00N 39°54' W 075°08'0 0.0
2019-Feb-10 05:01N 39°54' W 075°08'0 0.0
2019-Feb-10 04:55N 39°54' W 075°08'0 0.0
2019-Feb-10 04:10N 39°54' W 075°08'0 0.0
2019-Feb-10 03:46N 39°54' W 075°08'0 0.0
2019-Feb-10 02:43N 39°54' W 075°08'0 0.0
2019-Feb-10 02:28N 39°54' W 075°08'0 0.0
2019-Feb-10 00:26N 39°54' W 075°08'0 0.0
2019-Feb-09 23:47N 39°54' W 075°08'0 0.0
2019-Feb-09 22:53N 39°54' W 075°08'0 0.0
2019-Feb-09 22:01N 39°54' W 075°08'0 0.0
2019-Feb-09 21:55N 39°54' W 075°08'0 0.0
2019-Feb-09 21:10N 39°54' W 075°08'0 0.0
2019-Feb-09 20:34N 39°54' W 075°08'0 0.0
2019-Feb-09 19:28N 39°54' W 075°08'0 0.0
2019-Feb-09 18:56N 39°54' W 075°08'0 0.0
2019-Feb-09 18:15N 39°54' W 075°08'0 0.0
2019-Feb-09 17:58N 39°54' W 075°08'0 0.0
2019-Feb-09 17:17N 39°54' W 075°08'0 0.0
2019-Feb-09 15:59N 39°54' W 075°08'0 0.0
2019-Feb-09 15:30N 39°54' W 075°08'0 0.0
2019-Feb-09 14:32N 39°54' W 075°08'0 0.0
2019-Feb-09 14:29N 39°54' W 075°08'0 0.0
2019-Feb-09 12:57N 39°54' W 075°08'0 0.0
2019-Feb-09 12:20N 39°54' W 075°08'0 0.0
2019-Feb-09 12:00N 39°54' W 075°08'0 0.0
2019-Feb-09 11:22N 39°54' W 075°08'0 0.0
2019-Feb-09 11:00N 39°54' W 075°08'0 0.0
2019-Feb-09 10:15N 39°54' W 075°08'0 0.0
2019-Feb-09 09:34N 39°54' W 075°08'0 0.0
2019-Feb-09 09:28N 39°54' W 075°08'0 0.0
2019-Feb-09 08:03N 39°54' W 075°08'0 0.0
2019-Feb-09 07:15N 39°54' W 075°08'0 0.0
2019-Feb-09 06:57N 39°54' W 075°08'0 0.0
2019-Feb-09 06:25N 39°54' W 075°08'0 0.0
2019-Feb-09 05:37N 39°54' W 075°08'0 0.0
2019-Feb-09 05:15N 39°54' W 075°08'0 0.0
2019-Feb-09 04:38N 39°54' W 075°08'0 0.0
2019-Feb-09 04:05N 39°54' W 075°08'0 0.0
2019-Feb-09 03:35N 39°54' W 075°08'0 0.0
2019-Feb-09 03:15N 39°54' W 075°08'0 0.0
2019-Feb-09 02:58N 39°54' W 075°08'0 0.0
2019-Feb-09 02:30N 39°54' W 075°08'0 0.0
2019-Feb-09 01:55N 39°54' W 075°08'0 0.0
2019-Feb-09 00:59N 39°54' W 075°08'0 0.0
2019-Feb-09 00:26N 39°54' W 075°08'0 0.0
2019-Feb-08 23:34N 39°54' W 075°08'0 0.0
2019-Feb-08 23:27N 39°54' W 075°08'0 0.0
2019-Feb-08 23:00N 39°54' W 075°08'0 0.0
2019-Feb-08 22:30N 39°54' W 075°08'0 0.0
2019-Feb-08 22:00N 39°54' W 075°08'0 0.0
2019-Feb-08 21:20N 39°54' W 075°08'0 0.0
2019-Feb-08 21:00N 39°54' W 075°08'0 0.0
2019-Feb-08 19:55N 39°54' W 075°08'0 0.0
2019-Feb-08 19:30N 39°54' W 075°08'0 0.0
2019-Feb-08 18:44N 39°54' W 075°08'0 0.0
2019-Feb-08 18:16N 39°54' W 075°08'0 0.0
2019-Feb-08 17:51N 39°54' W 075°08'0 0.0
2019-Feb-08 17:25N 39°54' W 075°08'0 0.0
2019-Feb-08 17:00N 39°54' W 075°08'0 0.0
2019-Feb-08 15:33N 39°54' W 075°08'0 0.0
2019-Feb-08 15:29N 39°54' W 075°08'0 0.0
2019-Feb-08 14:56N 39°54' W 075°08'0 0.0
2019-Feb-08 14:26N 39°54' W 075°08'0 0.0
2019-Feb-08 14:00N 39°54' W 075°08'0 0.0
2019-Feb-08 13:28N 39°54' W 075°08'0 0.0
2019-Feb-08 12:55N 39°54' W 075°08'0 0.0
2019-Feb-08 12:25N 39°54' W 075°08'0 0.0
2019-Feb-08 11:53N 39°54' W 075°08'0 0.0
2019-Feb-08 11:25N 39°54' W 075°08'0 0.0
2019-Feb-08 10:58N 39°54' W 075°08'0 0.0
2019-Feb-08 08:03N 39°54' W 075°08'0 0.1
2019-Feb-08 08:00N 39°54' W 075°08'0 0.0
2019-Feb-08 07:29N 39°54' W 075°08'0 0.0
2019-Feb-08 06:53N 39°54' W 075°08'0 0.0
2019-Feb-08 06:30N 39°54' W 075°08'0 0.0
2019-Feb-08 05:55N 39°54' W 075°08'1 3.2
2019-Feb-08 05:30N 39°53' W 075°09'2 4.3
2019-Feb-08 05:00N 39°53' W 075°12'2 3.3
2019-Feb-08 04:30N 39°52' W 075°14'4 9.0
2019-Feb-08 04:01N 39°51' W 075°20'5 9.8
2019-Feb-08 03:30N 39°48' W 075°25'5 9.8
2019-Feb-08 03:00N 39°45' W 075°29'510.4
2019-Feb-08 02:30N 39°40' W 075°32'510.3
2019-Feb-08 02:00N 39°35' W 075°34'611.6
2019-Feb-08 01:30N 39°29' W 075°34'5 9.8
2019-Feb-08 01:00N 39°25' W 075°31'713.7
2019-Feb-08 00:30N 39°20' W 075°25'611.3
2019-Feb-08 00:00N 39°16' W 075°20'611.2
2019-Feb-07 23:30N 39°11' W 075°16'612.4
2019-Feb-07 23:00N 39°06' W 075°12'612.5
2019-Feb-07 22:30N 39°00' W 075°08'611.0
2019-Feb-07 22:00N 38°55' W 075°06'5 9.7
2019-Feb-07 21:30N 38°50' W 075°04'4 8.2
2019-Feb-07 21:00N 38°47' W 075°01'1410.1
2019-Feb-07 19:38N 38°37' W 074°49'211.1
2019-Feb-07 19:29N 38°35' W 074°47'5 9.3
2019-Feb-07 18:54N 38°33' W 074°42'2 1.0
2019-Feb-07 16:31N 38°35' W 074°40'0 1.4
2019-Feb-07 16:30N 38°35' W 074°40'6 5.2
2019-Feb-07 15:20N 38°29' W 074°41'9 9.7
2019-Feb-07 14:28N 38°20' W 074°39'510.0
2019-Feb-07 13:59N 38°15' W 074°39'  
Track history (hours):
 
Tides and Currents Weather Stations Pressure Air Temp Water Temp Dewpoint Dewpoint Depression Visibility Wind Speed Wind Dir Waves Ship Positions

Superstar Express

Operator: P & O Irish Sea

Last reported at 2019-Feb-15 07:32 UTC. Time now 2019-Feb-16 03:27 UTC.
Position N 31°55' W 080°39'.

Length 183 m; draft 7.2 m.

Type: Ship. MMSI: 351360000.

Date/timePositionNaut miles runAvg speedWind from/ knotsBaromVisibWave heightAir tempDewpointWater temp
2019-Feb-15 07:32N 31°55' W 080°39'0 8.5
2019-Feb-15 07:30N 31°55' W 080°39'5 9.3
2019-Feb-15 06:59N 31°58' W 080°44'510.3
2019-Feb-15 06:29N 32°01' W 080°48'5 9.8
2019-Feb-15 06:00N 32°02' W 080°54'5 9.6
2019-Feb-15 05:30N 32°05' W 080°59'4 7.7
2019-Feb-15 05:00N 32°05' W 081°03'3 4.8
2019-Feb-15 04:28N 32°05' W 081°06'0 0.0
2019-Feb-15 03:58N 32°05' W 081°06'0 0.0
2019-Feb-15 03:28N 32°05' W 081°06'0 0.0
2019-Feb-15 02:58N 32°05' W 081°06'0 0.0
2019-Feb-15 02:28N 32°05' W 081°06'0 0.0
2019-Feb-15 01:58N 32°05' W 081°06'0 0.0
2019-Feb-15 01:28N 32°05' W 081°06'0 0.0
2019-Feb-15 00:58N 32°05' W 081°06'0 0.0
2019-Feb-15 00:28N 32°05' W 081°06'0 0.0
2019-Feb-14 23:58N 32°05' W 081°06'0 0.0
2019-Feb-14 23:25N 32°05' W 081°06'0 0.0
2019-Feb-14 22:52N 32°05' W 081°06'0 0.0
2019-Feb-14 22:28N 32°05' W 081°06'0 0.0
2019-Feb-14 21:58N 32°05' W 081°06'0 0.0
2019-Feb-14 20:31N 32°05' W 081°06'0 0.1
2019-Feb-14 20:28N 32°05' W 081°06'0 0.0
2019-Feb-14 19:55N 32°05' W 081°06'0 0.0
2019-Feb-14 19:28N 32°05' W 081°06'0 0.0
2019-Feb-14 18:58N 32°05' W 081°06'0 0.0
2019-Feb-14 18:28N 32°05' W 081°06'0 0.0
2019-Feb-14 17:58N 32°05' W 081°06'0 0.0
2019-Feb-14 17:25N 32°05' W 081°06'0 0.0
2019-Feb-14 16:58N 32°05' W 081°06'0 0.0
2019-Feb-14 16:28N 32°05' W 081°06'0 0.0
2019-Feb-14 15:58N 32°05' W 081°06'0 0.0
2019-Feb-14 15:28N 32°05' W 081°06'0 0.0
2019-Feb-14 14:58N 32°05' W 081°06'0 0.0
2019-Feb-14 14:28N 32°05' W 081°06'0 0.0
2019-Feb-14 13:58N 32°05' W 081°06'0 0.0
2019-Feb-14 13:28N 32°05' W 081°06'0 0.0
2019-Feb-14 12:58N 32°05' W 081°06'0 0.0
2019-Feb-14 12:04N 32°05' W 081°06'0 0.1
2019-Feb-14 11:58N 32°05' W 081°06'0 0.0
2019-Feb-14 11:10N 32°05' W 081°06'0 0.0
2019-Feb-14 10:43N 32°05' W 081°06'0 0.0
2019-Feb-14 10:28N 32°05' W 081°06'0 0.0
2019-Feb-14 09:58N 32°05' W 081°06'0 0.0
2019-Feb-14 09:28N 32°05' W 081°06'0 0.0
2019-Feb-14 08:58N 32°05' W 081°06'0 0.0
2019-Feb-14 08:28N 32°05' W 081°06'0 0.0
2019-Feb-14 07:58N 32°05' W 081°06'0 0.0
2019-Feb-14 07:28N 32°05' W 081°06'0 0.0
2019-Feb-14 06:58N 32°05' W 081°06'0 0.0
2019-Feb-14 06:28N 32°05' W 081°06'0 0.0
2019-Feb-14 05:58N 32°05' W 081°06'0 0.0
2019-Feb-14 05:28N 32°05' W 081°06'0 0.0
2019-Feb-14 04:58N 32°05' W 081°06'0 0.0
2019-Feb-14 04:28N 32°05' W 081°06'0 0.0
2019-Feb-14 03:58N 32°05' W 081°06'0 0.0
2019-Feb-14 02:58N 32°05' W 081°06'0 0.1
2019-Feb-14 02:30N 32°06' W 081°06'2 3.4
2019-Feb-14 02:00N 32°07' W 081°07'3 5.7
2019-Feb-14 01:30N 32°05' W 081°05'4 8.0
2019-Feb-14 01:00N 32°06' W 081°01'5 9.2
2019-Feb-14 00:30N 32°03' W 080°56'4 8.9
2019-Feb-14 00:00N 32°02' W 080°51'5 9.9
2019-Feb-13 23:30N 31°59' W 080°46'611.1
2019-Feb-13 23:00N 31°57' W 080°41'4 8.5
2019-Feb-13 22:30N 31°57' W 080°35'5 9.4
2019-Feb-13 22:00N 31°58' W 080°30'5 9.3
2019-Feb-13 21:30N 32°00' W 080°25'5 9.1
2019-Feb-13 21:00N 32°03' W 080°21'  
2019-Feb-11 12:08N 38°46' W 075°02'3 9.7
2019-Feb-11 11:52N 38°48' W 075°04'811.3
2019-Feb-11 11:10N 38°56' W 075°06'214.6
2019-Feb-11 11:01N 38°58' W 075°07'713.8
2019-Feb-11 10:30N 39°05' W 075°11'713.7
2019-Feb-11 10:00N 39°10' W 075°16'713.2
2019-Feb-11 09:30N 39°16' W 075°20'612.9
2019-Feb-11 09:00N 39°21' W 075°26'612.2
2019-Feb-11 08:30N 39°25' W 075°31'510.3
2019-Feb-11 08:00N 39°30' W 075°33'510.1
2019-Feb-11 07:30N 39°35' W 075°34'4 8.7
2019-Feb-11 07:00N 39°39' W 075°33'4 8.8
2019-Feb-11 06:30N 39°43' W 075°30'5 9.1
2019-Feb-11 06:00N 39°47' W 075°27'4 8.6
2019-Feb-11 05:30N 39°50' W 075°22'12 2.4
2019-Feb-11 00:38N 39°54' W 075°08'0 0.0
2019-Feb-11 00:15N 39°54' W 075°08'0 0.0
2019-Feb-10 23:55N 39°54' W 075°08'0 0.0
2019-Feb-10 23:20N 39°54' W 075°08'0 0.0
2019-Feb-10 22:12N 39°54' W 075°08'0 0.0
2019-Feb-10 21:55N 39°54' W 075°08'0 0.0
2019-Feb-10 21:20N 39°54' W 075°08'0 0.0
2019-Feb-10 20:55N 39°54' W 075°08'0 0.0
2019-Feb-10 20:15N 39°54' W 075°08'0 0.0
2019-Feb-10 19:15N 39°54' W 075°08'0 0.0
2019-Feb-10 18:44N 39°54' W 075°08'0 0.0
2019-Feb-10 18:24N 39°54' W 075°08'0 0.0
2019-Feb-10 17:45N 39°54' W 075°08'0 0.0
2019-Feb-10 16:20N 39°54' W 075°08'0 0.0
2019-Feb-10 15:25N 39°54' W 075°08'0 0.0
2019-Feb-10 14:54N 39°54' W 075°08'0 0.0
2019-Feb-10 14:15N 39°54' W 075°08'0 0.0
2019-Feb-10 13:03N 39°54' W 075°08'0 0.0
2019-Feb-10 12:25N 39°54' W 075°08'0 0.0
2019-Feb-10 11:37N 39°54' W 075°08'0 0.0
2019-Feb-10 11:25N 39°54' W 075°08'0 0.0
2019-Feb-10 10:32N 39°54' W 075°08'0 0.0
2019-Feb-10 10:11N 39°54' W 075°08'0 0.0
2019-Feb-10 10:00N 39°54' W 075°08'0 0.0
2019-Feb-10 07:49N 39°54' W 075°08'0 0.0
2019-Feb-10 07:30N 39°54' W 075°08'0 0.0
2019-Feb-10 06:45N 39°54' W 075°08'0 0.0
2019-Feb-10 06:15N 39°54' W 075°08'0 0.0
2019-Feb-10 06:00N 39°54' W 075°08'0 0.0
2019-Feb-10 05:01N 39°54' W 075°08'0 0.0
2019-Feb-10 04:55N 39°54' W 075°08'0 0.0
2019-Feb-10 04:10N 39°54' W 075°08'0 0.0
2019-Feb-10 03:46N 39°54' W 075°08'0 0.0
2019-Feb-10 02:43N 39°54' W 075°08'0 0.0
2019-Feb-10 02:28N 39°54' W 075°08'0 0.0
2019-Feb-10 00:26N 39°54' W 075°08'0 0.0
2019-Feb-09 23:47N 39°54' W 075°08'0 0.0
2019-Feb-09 22:53N 39°54' W 075°08'0 0.0
2019-Feb-09 22:01N 39°54' W 075°08'0 0.0
2019-Feb-09 21:55N 39°54' W 075°08'0 0.0
2019-Feb-09 21:10N 39°54' W 075°08'0 0.0
2019-Feb-09 20:34N 39°54' W 075°08'0 0.0
2019-Feb-09 19:28N 39°54' W 075°08'0 0.0
2019-Feb-09 18:56N 39°54' W 075°08'0 0.0
2019-Feb-09 18:15N 39°54' W 075°08'0 0.0
2019-Feb-09 17:58N 39°54' W 075°08'0 0.0
2019-Feb-09 17:17N 39°54' W 075°08'0 0.0
2019-Feb-09 15:59N 39°54' W 075°08'0 0.0
2019-Feb-09 15:30N 39°54' W 075°08'0 0.0
2019-Feb-09 14:32N 39°54' W 075°08'0 0.0
2019-Feb-09 14:29N 39°54' W 075°08'0 0.0
2019-Feb-09 12:57N 39°54' W 075°08'0 0.0
2019-Feb-09 12:20N 39°54' W 075°08'0 0.0
2019-Feb-09 12:00N 39°54' W 075°08'0 0.0
2019-Feb-09 11:22N 39°54' W 075°08'0 0.0
2019-Feb-09 11:00N 39°54' W 075°08'0 0.0
2019-Feb-09 10:15N 39°54' W 075°08'0 0.0
2019-Feb-09 09:34N 39°54' W 075°08'0 0.0
2019-Feb-09 09:28N 39°54' W 075°08'0 0.0
2019-Feb-09 08:03N 39°54' W 075°08'0 0.0
2019-Feb-09 07:15N 39°54' W 075°08'0 0.0
2019-Feb-09 06:57N 39°54' W 075°08'0 0.0
2019-Feb-09 06:25N 39°54' W 075°08'0 0.0
2019-Feb-09 05:37N 39°54' W 075°08'0 0.0
2019-Feb-09 05:15N 39°54' W 075°08'0 0.0
2019-Feb-09 04:38N 39°54' W 075°08'0 0.0
2019-Feb-09 04:05N 39°54' W 075°08'0 0.0
2019-Feb-09 03:35N 39°54' W 075°08'0 0.0
2019-Feb-09 03:15N 39°54' W 075°08'0 0.0
2019-Feb-09 02:58N 39°54' W 075°08'0 0.0
2019-Feb-09 02:30N 39°54' W 075°08'0 0.0
2019-Feb-09 01:55N 39°54' W 075°08'0 0.0
2019-Feb-09 00:59N 39°54' W 075°08'0 0.0
2019-Feb-09 00:26N 39°54' W 075°08'0 0.0
2019-Feb-08 23:34N 39°54' W 075°08'0 0.0
2019-Feb-08 23:27N 39°54' W 075°08'0 0.0
2019-Feb-08 23:00N 39°54' W 075°08'0 0.0
2019-Feb-08 22:30N 39°54' W 075°08'0 0.0
2019-Feb-08 22:00N 39°54' W 075°08'0 0.0
2019-Feb-08 21:20N 39°54' W 075°08'0 0.0
2019-Feb-08 21:00N 39°54' W 075°08'0 0.0
2019-Feb-08 19:55N 39°54' W 075°08'0 0.0
2019-Feb-08 19:30N 39°54' W 075°08'0 0.0
2019-Feb-08 18:44N 39°54' W 075°08'0 0.0
2019-Feb-08 18:16N 39°54' W 075°08'0 0.0
2019-Feb-08 17:51N 39°54' W 075°08'0 0.0
2019-Feb-08 17:25N 39°54' W 075°08'0 0.0
2019-Feb-08 17:00N 39°54' W 075°08'0 0.0
2019-Feb-08 15:33N 39°54' W 075°08'0 0.0
2019-Feb-08 15:29N 39°54' W 075°08'0 0.0
2019-Feb-08 14:56N 39°54' W 075°08'0 0.0
2019-Feb-08 14:26N 39°54' W 075°08'0 0.0
2019-Feb-08 14:00N 39°54' W 075°08'0 0.0
2019-Feb-08 13:28N 39°54' W 075°08'0 0.0
2019-Feb-08 12:55N 39°54' W 075°08'0 0.0
2019-Feb-08 12:25N 39°54' W 075°08'0 0.0
2019-Feb-08 11:53N 39°54' W 075°08'0 0.0
2019-Feb-08 11:25N 39°54' W 075°08'0 0.0
2019-Feb-08 10:58N 39°54' W 075°08'0 0.0
2019-Feb-08 08:03N 39°54' W 075°08'0 0.1
2019-Feb-08 08:00N 39°54' W 075°08'0 0.0
2019-Feb-08 07:29N 39°54' W 075°08'0 0.0
2019-Feb-08 06:53N 39°54' W 075°08'0 0.0
2019-Feb-08 06:30N 39°54' W 075°08'0 0.0
2019-Feb-08 05:55N 39°54' W 075°08'1 3.2
2019-Feb-08 05:30N 39°53' W 075°09'2 4.3
2019-Feb-08 05:00N 39°53' W 075°12'2 3.3
2019-Feb-08 04:30N 39°52' W 075°14'4 9.0
2019-Feb-08 04:01N 39°51' W 075°20'5 9.8
2019-Feb-08 03:30N 39°48' W 075°25'5 9.8
2019-Feb-08 03:00N 39°45' W 075°29'510.4
2019-Feb-08 02:30N 39°40' W 075°32'510.3
2019-Feb-08 02:00N 39°35' W 075°34'611.6
2019-Feb-08 01:30N 39°29' W 075°34'5 9.8
2019-Feb-08 01:00N 39°25' W 075°31'713.7
2019-Feb-08 00:30N 39°20' W 075°25'611.3
2019-Feb-08 00:00N 39°16' W 075°20'611.2
2019-Feb-07 23:30N 39°11' W 075°16'612.4
2019-Feb-07 23:00N 39°06' W 075°12'612.5
2019-Feb-07 22:30N 39°00' W 075°08'611.0
2019-Feb-07 22:00N 38°55' W 075°06'5 9.7
2019-Feb-07 21:30N 38°50' W 075°04'4 8.2
2019-Feb-07 21:00N 38°47' W 075°01'1410.1
2019-Feb-07 19:38N 38°37' W 074°49'211.1
2019-Feb-07 19:29N 38°35' W 074°47'5 9.3
2019-Feb-07 18:54N 38°33' W 074°42'2 1.0
2019-Feb-07 16:31N 38°35' W 074°40'0 1.4
2019-Feb-07 16:30N 38°35' W 074°40'6 5.2
2019-Feb-07 15:20N 38°29' W 074°41'9 9.7
2019-Feb-07 14:28N 38°20' W 074°39'510.0
2019-Feb-07 13:59N 38°15' W 074°39'  

Dump ship's entire track history